Time;durP1;ratioP1;P1;durP2;ratioP2;P2;SDS_P1;SDS_P2;PMS_P1;PMS_P2;Temp;Humidity;BMP_temperature;BMP_pressure;BME280_temperature;BME280_humidity;BME280_pressure;Samples;Min_cycle;Max_cycle;Signal;HPM_P1;HPM_P2
2022/12/24 00:02:26;;;;;;;3.27;2.00;;;;;;;;;;5048832;28;20898;-74
2022/12/24 00:04:53;;;;;;;3.20;1.80;;;;;;;;;;5048809;28;20452;-74
2022/12/24 00:07:20;;;;;;;2.33;1.50;;;;;;;;;;5049589;28;20574;-74
2022/12/24 00:09:48;;;;;;;3.03;1.70;;;;;;;;;;5049398;28;20452;-74
2022/12/24 00:12:15;;;;;;;4.10;2.30;;;;;;;;;;5049924;28;20514;-75
2022/12/24 00:14:42;;;;;;;4.33;2.00;;;;;;;;;;5048745;28;20478;-74
2022/12/24 00:17:09;;;;;;;4.73;1.87;;;;;;;;;;5049142;28;20469;-73
2022/12/24 00:19:36;;;;;;;2.70;1.50;;;;;;;;;;5049322;28;20796;-74
2022/12/24 00:22:03;;;;;;;5.23;1.80;;;;;;;;;;5049330;28;20528;-74
2022/12/24 00:24:30;;;;;;;3.83;1.50;;;;;;;;;;5048742;28;20450;-74
2022/12/24 00:26:59;;;;;;;5.53;2.10;;;;;;;;;;5049126;28;20469;-74
2022/12/24 00:29:27;;;;;;;4.40;1.70;;;;;;;;;;5048967;28;20444;-74
2022/12/24 00:31:54;;;;;;;9.03;1.87;;;;;;;;;;5049197;28;21129;-74
2022/12/24 00:34:23;;;;;;;3.70;1.70;;;;;;;;;;5048522;28;20497;-74
2022/12/24 00:36:50;;;;;;;5.13;1.87;;;;;;;;;;5048952;28;20469;-75
2022/12/24 00:39:17;;;;;;;5.90;2.00;;;;;;;;;;5051528;28;20438;-74
2022/12/24 00:41:44;;;;;;;2.63;2.10;;;;;;;;;;5050216;28;20449;-74
2022/12/24 00:44:12;;;;;;;3.30;1.80;;;;;;;;;;5048376;28;20811;-73
2022/12/24 00:46:41;;;;;;;5.67;1.67;;;;;;;;;;5049022;28;20496;-72
2022/12/24 00:49:09;;;;;;;1.93;1.70;;;;;;;;;;5047606;28;20801;-73
2022/12/24 00:51:36;;;;;;;2.83;1.67;;;;;;;;;;5048459;28;20437;-74
2022/12/24 00:54:03;;;;;;;5.30;2.13;;;;;;;;;;5047892;28;20469;-74
2022/12/24 00:56:30;;;;;;;4.80;1.97;;;;;;;;;;5044896;28;20469;-72
2022/12/24 00:58:57;;;;;;;5.60;2.50;;;;;;;;;;5048397;28;20472;-74
2022/12/24 01:01:26;;;;;;;5.97;1.90;;;;;;;;;;5045641;28;20457;-73
2022/12/24 01:05:08;;;;;;;4.77;2.17;;;;;;;;;;5042601;28;20453;-73
2022/12/24 01:06:39;;;;;;;6.50;1.83;;;;;;;;;;5036892;28;20844;-74
2022/12/24 01:09:06;;;;;;;5.23;2.13;;;;;;;;;;5050731;28;21012;-74
2022/12/24 01:11:33;;;;;;;6.03;2.00;;;;;;;;;;5036355;28;20457;-73
2022/12/24 01:14:00;;;;;;;3.53;2.40;;;;;;;;;;5042379;28;20583;-74
2022/12/24 01:16:28;;;;;;;3.70;2.17;;;;;;;;;;5039804;28;20466;-73
2022/12/24 01:18:55;;;;;;;7.33;1.97;;;;;;;;;;5053940;28;20433;-73
2022/12/24 01:21:22;;;;;;;3.93;2.60;;;;;;;;;;5064350;28;20422;-73
2022/12/24 01:23:49;;;;;;;5.70;2.40;;;;;;;;;;5052510;28;20433;-73
2022/12/24 01:26:16;;;;;;;2.73;2.00;;;;;;;;;;5050186;28;20457;-73
2022/12/24 01:28:43;;;;;;;4.80;1.83;;;;;;;;;;5068428;28;20450;-74
2022/12/24 01:31:12;;;;;;;2.43;1.70;;;;;;;;;;5069697;28;20445;-73
2022/12/24 01:33:40;;;;;;;4.90;2.43;;;;;;;;;;5068155;28;20459;-74
2022/12/24 01:36:08;;;;;;;5.20;1.70;;;;;;;;;;5053106;28;20917;-74
2022/12/24 01:38:35;;;;;;;2.80;1.77;;;;;;;;;;5052580;28;20524;-73
2022/12/24 01:43:46;;;;;;;3.97;2.60;;;;;;;;;;5051437;28;20450;-73
2022/12/24 01:46:16;;;;;;;4.10;2.17;;;;;;;;;;5051850;28;20515;-73
2022/12/24 01:48:46;;;;;;;8.10;2.43;;;;;;;;;;5051364;28;20533;-74
2022/12/24 01:51:17;;;;;;;5.63;2.13;;;;;;;;;;5051624;28;20449;-73
2022/12/24 01:53:45;;;;;;;4.77;2.33;;;;;;;;;;5051768;28;20448;-74
2022/12/24 01:56:13;;;;;;;5.90;2.23;;;;;;;;;;5051137;28;20550;-72
2022/12/24 01:58:42;;;;;;;6.77;2.40;;;;;;;;;;5050732;28;20998;-73
2022/12/24 02:01:09;;;;;;;4.17;3.10;;;;;;;;;;5051037;28;20445;-73
2022/12/24 02:03:36;;;;;;;5.90;2.53;;;;;;;;;;5049085;28;20444;-73
2022/12/24 02:06:05;;;;;;;6.30;2.57;;;;;;;;;;5051266;28;20441;-74
2022/12/24 02:08:39;;;;;;;3.60;2.23;;;;;;;;;;5050975;28;20784;-73
2022/12/24 02:11:10;;;;;;;4.10;1.83;;;;;;;;;;5051615;28;20525;-73
2022/12/24 02:13:37;;;;;;;6.03;2.30;;;;;;;;;;5050485;28;20977;-74
2022/12/24 02:16:09;;;;;;;5.97;2.73;;;;;;;;;;5051112;28;20484;-74
2022/12/24 02:18:39;;;;;;;8.70;2.73;;;;;;;;;;5051398;28;20438;-74
2022/12/24 02:21:21;;;;;;;6.53;2.77;;;;;;;;;;5051309;28;20446;-73
2022/12/24 02:24:03;;;;;;;2.87;2.17;;;;;;;;;;5017626;28;20522;-73
2022/12/24 02:26:37;;;;;;;5.40;2.37;;;;;;;;;;5051029;28;20465;-73
2022/12/24 02:29:18;;;;;;;6.60;2.97;;;;;;;;;;5051159;28;20503;-73
2022/12/24 02:31:50;;;;;;;5.20;2.43;;;;;;;;;;5051064;28;20795;-73
2022/12/24 02:34:20;;;;;;;6.10;2.80;;;;;;;;;;5050591;28;20441;-73
2022/12/24 02:36:49;;;;;;;5.30;2.40;;;;;;;;;;5051045;28;20480;-73
2022/12/24 02:39:20;;;;;;;6.27;2.03;;;;;;;;;;5050815;28;20964;-73
2022/12/24 02:42:05;;;;;;;7.43;2.20;;;;;;;;;;5050770;28;20957;-75
2022/12/24 02:44:34;;;;;;;7.57;2.20;;;;;;;;;;5050056;28;20504;-73
2022/12/24 02:47:03;;;;;;;8.20;2.50;;;;;;;;;;5050326;28;20996;-75
2022/12/24 02:49:30;;;;;;;6.67;2.63;;;;;;;;;;5050649;28;20464;-74
2022/12/24 02:51:57;;;;;;;5.10;2.30;;;;;;;;;;5050835;28;20866;-73
2022/12/24 02:54:24;;;;;;;2.73;2.00;;;;;;;;;;5050129;28;20449;-74
2022/12/24 02:56:58;;;;;;;8.37;2.40;;;;;;;;;;5050776;28;20851;-73
2022/12/24 02:59:40;;;;;;;5.43;2.30;;;;;;;;;;5050229;28;20445;-75
2022/12/24 03:02:18;;;;;;;6.80;2.40;;;;;;;;;;5050511;28;20469;-73
2022/12/24 03:04:47;;;;;;;7.43;2.73;;;;;;;;;;5049759;28;20529;-73
2022/12/24 03:07:17;;;;;;;5.53;2.87;;;;;;;;;;5050386;28;20462;-74
2022/12/24 03:09:50;;;;;;;6.70;2.83;;;;;;;;;;5050244;28;20434;-72
2022/12/24 03:12:20;;;;;;;6.83;2.20;;;;;;;;;;5050226;28;20917;-73
2022/12/24 03:14:48;;;;;;;8.43;4.53;;;;;;;;;;5049737;28;20517;-74
2022/12/24 03:17:17;;;;;;;5.03;2.13;;;;;;;;;;5050035;28;20461;-74
2022/12/24 03:19:45;;;;;;;4.70;2.43;;;;;;;;;;5049928;28;20441;-73
2022/12/24 03:22:12;;;;;;;8.17;2.70;;;;;;;;;;5050401;28;20445;-74
2022/12/24 03:24:39;;;;;;;7.20;2.67;;;;;;;;;;5049750;28;20448;-73
2022/12/24 03:27:07;;;;;;;5.47;2.40;;;;;;;;;;5049598;28;20592;-73
2022/12/24 03:29:35;;;;;;;5.30;2.57;;;;;;;;;;5049966;28;20442;-74
2022/12/24 03:32:03;;;;;;;7.53;3.20;;;;;;;;;;5050423;28;20449;-73
2022/12/24 03:34:32;;;;;;;9.20;2.83;;;;;;;;;;5049227;28;20980;-73
2022/12/24 03:36:59;;;;;;;5.13;2.57;;;;;;;;;;5049985;28;20488;-74
2022/12/24 03:39:26;;;;;;;4.40;2.30;;;;;;;;;;5049998;28;20441;-73
2022/12/24 03:41:53;;;;;;;7.27;2.80;;;;;;;;;;5050070;28;20446;-72
2022/12/24 03:44:20;;;;;;;9.70;2.63;;;;;;;;;;5049298;28;20453;-73
2022/12/24 03:46:47;;;;;;;4.67;2.90;;;;;;;;;;5051408;28;20466;-74
2022/12/24 03:49:14;;;;;;;6.20;2.47;;;;;;;;;;5052759;28;20437;-75
2022/12/24 03:51:42;;;;;;;6.73;2.43;;;;;;;;;;5053309;28;20445;-75
2022/12/24 03:54:09;;;;;;;9.50;2.63;;;;;;;;;;5064141;28;20488;-74
2022/12/24 03:56:36;;;;;;;6.00;2.53;;;;;;;;;;5073937;28;20469;-73
2022/12/24 03:59:03;;;;;;;6.50;2.73;;;;;;;;;;5050524;28;20464;-73
2022/12/24 04:01:30;;;;;;;5.47;2.93;;;;;;;;;;5073149;28;20434;-73
2022/12/24 04:03:57;;;;;;;9.63;3.80;;;;;;;;;;5072667;28;20615;-73
2022/12/24 04:06:24;;;;;;;7.10;2.80;;;;;;;;;;5068162;28;20461;-73
2022/12/24 04:08:52;;;;;;;8.13;3.10;;;;;;;;;;5053119;28;20430;-73
2022/12/24 04:11:20;;;;;;;7.93;3.10;;;;;;;;;;5074115;28;20425;-72
2022/12/24 04:13:47;;;;;;;7.20;3.63;;;;;;;;;;5071361;28;20521;-74
2022/12/24 04:16:15;;;;;;;6.13;2.53;;;;;;;;;;5071528;28;20508;-73
2022/12/24 04:18:42;;;;;;;6.47;2.67;;;;;;;;;;5060775;28;20453;-73
2022/12/24 04:21:09;;;;;;;8.13;3.10;;;;;;;;;;5050006;28;20442;-72
2022/12/24 04:23:38;;;;;;;8.33;2.77;;;;;;;;;;5057524;28;20429;-72
2022/12/24 04:26:07;;;;;;;6.20;2.83;;;;;;;;;;5057843;28;21105;-74
2022/12/24 04:28:35;;;;;;;6.00;2.53;;;;;;;;;;5049642;28;20436;-73
2022/12/24 04:31:02;;;;;;;8.70;2.67;;;;;;;;;;5049522;28;20442;-73
2022/12/24 04:33:29;;;;;;;12.07;3.40;;;;;;;;;;5048552;28;20458;-74
2022/12/24 04:35:58;;;;;;;7.47;2.40;;;;;;;;;;5059644;28;20526;-73
2022/12/24 04:38:25;;;;;;;9.00;2.60;;;;;;;;;;5048889;28;21023;-73
2022/12/24 04:40:58;;;;;;;5.20;2.53;;;;;;;;;;5049014;28;20495;-74
2022/12/24 04:43:26;;;;;;;5.17;2.70;;;;;;;;;;5048877;28;20448;-73
2022/12/24 04:45:53;;;;;;;5.27;2.20;;;;;;;;;;5050822;28;20437;-72
2022/12/24 04:48:20;;;;;;;4.83;2.20;;;;;;;;;;5055418;28;20481;-73
2022/12/24 04:50:47;;;;;;;6.73;2.53;;;;;;;;;;5059659;28;20441;-74
2022/12/24 04:53:14;;;;;;;5.07;2.70;;;;;;;;;;5060783;28;20441;-75
2022/12/24 04:55:44;;;;;;;5.83;2.57;;;;;;;;;;5058810;28;21012;-73
2022/12/24 04:58:11;;;;;;;9.93;2.87;;;;;;;;;;5055204;28;20457;-74
2022/12/24 05:00:39;;;;;;;7.10;2.80;;;;;;;;;;5054618;28;20449;-73
2022/12/24 05:03:06;;;;;;;5.07;2.10;;;;;;;;;;5054322;28;20508;-72
2022/12/24 05:05:33;;;;;;;6.60;3.00;;;;;;;;;;5058531;28;20441;-75
2022/12/24 05:08:00;;;;;;;4.53;2.03;;;;;;;;;;5061913;28;20493;-73
2022/12/24 05:10:27;;;;;;;7.63;3.03;;;;;;;;;;5063925;28;20441;-75
2022/12/24 05:12:54;;;;;;;5.43;2.20;;;;;;;;;;5066918;28;20434;-72
2022/12/24 05:15:21;;;;;;;6.33;2.83;;;;;;;;;;5068389;28;20480;-73
2022/12/24 05:17:50;;;;;;;6.43;2.90;;;;;;;;;;5057516;28;20495;-74
2022/12/24 05:20:17;;;;;;;7.40;2.80;;;;;;;;;;5067959;28;20445;-74
2022/12/24 05:28:17;;;;;;;8.20;3.40;;;;;;;;;;5065246;28;20440;-73
2022/12/24 05:30:44;;;;;;;6.40;2.20;;;;;;;;;;5072717;28;20441;-74
2022/12/24 05:33:12;;;;;;;6.67;2.70;;;;;;;;;;5070290;28;20437;-73
2022/12/24 05:35:39;;;;;;;5.50;2.57;;;;;;;;;;5056879;28;20475;-74
2022/12/24 05:38:06;;;;;;;7.90;2.30;;;;;;;;;;5059425;28;21242;-74
2022/12/24 05:40:33;;;;;;;10.07;2.60;;;;;;;;;;5068925;28;20925;-74
2022/12/24 05:43:00;;;;;;;6.70;2.37;;;;;;;;;;5070290;28;20438;-73
2022/12/24 05:45:28;;;;;;;7.60;2.10;;;;;;;;;;5074627;28;20437;-73
2022/12/24 05:47:55;;;;;;;10.67;2.80;;;;;;;;;;5064729;28;20457;-74
2022/12/24 05:50:24;;;;;;;9.13;2.70;;;;;;;;;;5057827;28;20456;-74
2022/12/24 05:52:51;;;;;;;7.73;2.80;;;;;;;;;;5058320;28;20783;-74
2022/12/24 05:55:18;;;;;;;4.70;2.03;;;;;;;;;;5058909;28;20949;-75
2022/12/24 05:57:45;;;;;;;4.23;2.50;;;;;;;;;;5061109;28;20477;-75
2022/12/24 06:00:12;;;;;;;6.73;2.40;;;;;;;;;;5052746;28;20449;-74
2022/12/24 06:02:39;;;;;;;7.50;2.70;;;;;;;;;;5053859;28;20792;-74
2022/12/24 06:05:07;;;;;;;5.87;2.43;;;;;;;;;;5052480;28;20445;-74
2022/12/24 06:07:35;;;;;;;9.33;3.23;;;;;;;;;;5057422;28;20496;-74
2022/12/24 06:10:02;;;;;;;6.43;2.60;;;;;;;;;;5061180;28;20438;-74
2022/12/24 06:12:29;;;;;;;6.10;2.43;;;;;;;;;;5073189;28;20468;-74
2022/12/24 06:14:56;;;;;;;6.13;2.40;;;;;;;;;;5072880;28;20464;-74
2022/12/24 06:17:23;;;;;;;9.03;3.43;;;;;;;;;;5071272;28;20504;-74
2022/12/24 06:19:50;;;;;;;9.27;3.20;;;;;;;;;;5072885;28;20469;-74
2022/12/24 06:22:17;;;;;;;7.77;3.00;;;;;;;;;;5074668;28;20461;-74
2022/12/24 06:24:45;;;;;;;8.33;3.00;;;;;;;;;;5073785;28;20413;-74
2022/12/24 06:27:12;;;;;;;8.60;3.77;;;;;;;;;;5071110;28;20515;-74
2022/12/24 06:29:39;;;;;;;9.57;2.60;;;;;;;;;;5057179;28;20818;-73
2022/12/24 06:32:07;;;;;;;8.03;3.53;;;;;;;;;;5057037;28;20453;-74
2022/12/24 06:34:34;;;;;;;8.23;2.70;;;;;;;;;;5055499;28;20445;-74
2022/12/24 06:37:01;;;;;;;5.17;3.10;;;;;;;;;;5068150;28;20519;-75
2022/12/24 06:39:28;;;;;;;7.00;2.80;;;;;;;;;;5073536;28;21194;-74
2022/12/24 06:41:56;;;;;;;5.97;2.40;;;;;;;;;;5074848;28;20451;-75
2022/12/24 06:44:23;;;;;;;6.60;3.10;;;;;;;;;;5077223;28;20444;-74
2022/12/24 06:46:50;;;;;;;7.67;2.47;;;;;;;;;;5079692;28;20865;-73
2022/12/24 06:49:18;;;;;;;10.30;3.37;;;;;;;;;;5079843;28;20448;-73
2022/12/24 06:51:45;;;;;;;10.33;2.90;;;;;;;;;;5077851;28;20433;-75
2022/12/24 06:54:12;;;;;;;7.83;3.10;;;;;;;;;;5081772;28;21280;-73
2022/12/24 06:56:39;;;;;;;7.23;3.17;;;;;;;;;;5078370;28;20555;-74
2022/12/24 06:59:07;;;;;;;6.27;3.43;;;;;;;;;;5075192;28;20444;-73
2022/12/24 07:01:34;;;;;;;11.07;3.70;;;;;;;;;;5080285;28;20516;-74
2022/12/24 07:04:01;;;;;;;7.63;3.80;;;;;;;;;;5082989;28;20445;-74
2022/12/24 07:06:29;;;;;;;10.97;4.33;;;;;;;;;;5072973;28;20983;-72
2022/12/24 07:08:56;;;;;;;8.37;3.87;;;;;;;;;;5079177;28;20445;-73
2022/12/24 07:11:24;;;;;;;7.60;3.53;;;;;;;;;;5075811;28;20483;-72
2022/12/24 07:13:51;;;;;;;8.73;2.83;;;;;;;;;;5075442;28;20441;-73
2022/12/24 07:16:20;;;;;;;7.50;3.70;;;;;;;;;;5076289;28;20480;-73
2022/12/24 07:18:47;;;;;;;9.10;3.27;;;;;;;;;;5074640;28;20605;-73
2022/12/24 07:21:14;;;;;;;14.60;6.10;;;;;;;;;;5089743;28;20479;-75
2022/12/24 07:23:41;;;;;;;9.80;6.37;;;;;;;;;;5082994;28;20479;-75
2022/12/24 07:26:08;;;;;;;9.97;4.70;;;;;;;;;;5068885;28;20450;-73
2022/12/24 07:28:35;;;;;;;7.70;3.60;;;;;;;;;;5052804;28;20457;-74
2022/12/24 07:31:02;;;;;;;6.27;4.20;;;;;;;;;;5054349;28;20448;-73
2022/12/24 07:33:31;;;;;;;10.40;4.50;;;;;;;;;;5053227;28;20441;-74
2022/12/24 07:35:58;;;;;;;7.27;3.90;;;;;;;;;;5044772;28;20486;-74
2022/12/24 07:38:25;;;;;;;10.13;4.27;;;;;;;;;;5033625;28;20485;-74
2022/12/24 07:40:52;;;;;;;13.37;4.20;;;;;;;;;;5039423;28;20434;-74
2022/12/24 07:43:19;;;;;;;6.50;3.37;;;;;;;;;;5046067;28;20450;-74
2022/12/24 07:45:46;;;;;;;8.17;3.67;;;;;;;;;;5055399;28;20434;-73
2022/12/24 07:48:13;;;;;;;8.07;3.80;;;;;;;;;;5070319;28;20456;-72
2022/12/24 07:50:42;;;;;;;6.70;3.60;;;;;;;;;;5069576;28;20446;-73
2022/12/24 07:53:09;;;;;;;12.30;4.27;;;;;;;;;;5070214;28;20429;-71
2022/12/24 07:55:36;;;;;;;4.30;3.70;;;;;;;;;;5072024;28;20437;-74
2022/12/24 07:58:03;;;;;;;7.33;3.60;;;;;;;;;;5062932;28;20477;-75
2022/12/24 08:00:30;;;;;;;8.63;3.73;;;;;;;;;;5065091;28;20441;-74
2022/12/24 08:02:58;;;;;;;11.23;3.53;;;;;;;;;;5068218;28;20445;-73
2022/12/24 08:05:25;;;;;;;11.23;4.53;;;;;;;;;;5067840;28;20448;-75
2022/12/24 08:07:54;;;;;;;10.57;4.10;;;;;;;;;;5067597;28;20453;-73
2022/12/24 08:10:21;;;;;;;7.87;3.80;;;;;;;;;;5067384;28;20434;-73
2022/12/24 08:12:49;;;;;;;10.67;3.40;;;;;;;;;;5063417;28;20442;-72
2022/12/24 08:15:16;;;;;;;4.30;2.93;;;;;;;;;;5036685;28;20923;-74
2022/12/24 08:17:43;;;;;;;7.50;3.20;;;;;;;;;;5028488;28;20490;-74
2022/12/24 08:20:10;;;;;;;9.13;3.53;;;;;;;;;;5028038;28;20548;-74
2022/12/24 08:22:37;;;;;;;5.30;3.00;;;;;;;;;;5026695;28;20442;-74
2022/12/24 08:25:06;;;;;;;5.30;2.63;;;;;;;;;;5027140;28;20480;-74
2022/12/24 08:27:33;;;;;;;6.00;3.13;;;;;;;;;;5027285;28;20478;-73
2022/12/24 08:30:00;;;;;;;8.97;3.33;;;;;;;;;;5027193;28;20512;-73
2022/12/24 08:32:27;;;;;;;9.40;4.07;;;;;;;;;;5027257;28;20454;-74
2022/12/24 08:34:54;;;;;;;9.57;3.30;;;;;;;;;;5027356;28;20462;-73
2022/12/24 08:37:21;;;;;;;8.50;2.90;;;;;;;;;;5026818;28;20501;-74
2022/12/24 08:39:48;;;;;;;10.00;3.63;;;;;;;;;;5026756;28;20481;-74
2022/12/24 08:42:17;;;;;;;6.83;3.50;;;;;;;;;;5027010;28;20462;-73
2022/12/24 08:44:44;;;;;;;8.73;3.53;;;;;;;;;;5026068;28;20451;-75
2022/12/24 08:47:11;;;;;;;7.97;3.23;;;;;;;;;;5027821;28;20471;-76
2022/12/24 08:49:39;;;;;;;7.03;3.67;;;;;;;;;;5035964;28;20918;-75
2022/12/24 08:52:06;;;;;;;5.50;3.10;;;;;;;;;;5042351;28;20446;-76
2022/12/24 08:54:33;;;;;;;8.20;4.80;;;;;;;;;;5047330;28;20441;-74
2022/12/24 08:57:00;;;;;;;7.33;3.00;;;;;;;;;;5047272;28;20484;-75
2022/12/24 08:59:28;;;;;;;8.00;3.37;;;;;;;;;;5048444;28;20968;-75
2022/12/24 09:01:55;;;;;;;5.83;3.00;;;;;;;;;;5047801;28;20456;-74
2022/12/24 09:04:22;;;;;;;12.17;3.47;;;;;;;;;;5046942;28;20442;-75
2022/12/24 09:06:49;;;;;;;6.70;3.23;;;;;;;;;;5047198;28;20830;-75
2022/12/24 09:09:16;;;;;;;9.67;4.17;;;;;;;;;;5047642;28;20952;-75
2022/12/24 09:11:44;;;;;;;8.63;2.90;;;;;;;;;;5047388;28;20452;-74
2022/12/24 09:14:11;;;;;;;9.60;3.80;;;;;;;;;;5047321;28;20561;-75
2022/12/24 09:16:39;;;;;;;3.73;2.70;;;;;;;;;;5047682;28;20490;-73
2022/12/24 09:19:06;;;;;;;6.70;3.80;;;;;;;;;;5047243;28;20445;-75
2022/12/24 09:21:33;;;;;;;9.30;3.90;;;;;;;;;;5047342;28;20937;-75
2022/12/24 09:24:00;;;;;;;6.00;4.10;;;;;;;;;;5047185;28;20503;-75
2022/12/24 09:26:30;;;;;;;6.13;3.40;;;;;;;;;;5047569;28;21057;-76
2022/12/24 09:28:58;;;;;;;6.63;3.30;;;;;;;;;;5047825;28;20457;-74
2022/12/24 09:31:25;;;;;;;6.67;3.70;;;;;;;;;;5043696;28;20441;-74
2022/12/24 09:33:54;;;;;;;6.37;3.13;;;;;;;;;;5045723;28;20450;-76
2022/12/24 09:36:21;;;;;;;5.43;3.10;;;;;;;;;;5047277;28;20467;-75
2022/12/24 09:38:48;;;;;;;6.70;2.73;;;;;;;;;;5027193;28;20446;-75
2022/12/24 09:41:16;;;;;;;9.90;3.50;;;;;;;;;;5028872;28;20442;-74
2022/12/24 09:43:46;;;;;;;8.97;3.73;;;;;;;;;;5045732;28;20441;-75
2022/12/24 09:46:15;;;;;;;9.93;4.43;;;;;;;;;;5047074;28;20441;-74
2022/12/24 09:48:44;;;;;;;5.40;3.13;;;;;;;;;;5047424;28;20442;-75
2022/12/24 09:51:13;;;;;;;7.50;3.50;;;;;;;;;;5047871;28;20442;-75
2022/12/24 09:53:41;;;;;;;8.37;3.27;;;;;;;;;;5051681;28;20944;-76
2022/12/24 09:56:12;;;;;;;6.87;3.40;;;;;;;;;;5054550;28;20453;-75
2022/12/24 09:58:41;;;;;;;11.40;3.00;;;;;;;;;;5054827;28;20489;-75
2022/12/24 10:01:10;;;;;;;6.67;2.50;;;;;;;;;;5050947;28;20450;-74
2022/12/24 10:03:38;;;;;;;5.60;3.10;;;;;;;;;;5049999;28;20457;-75
2022/12/24 10:06:08;;;;;;;6.27;3.37;;;;;;;;;;5049987;28;20954;-75
2022/12/24 10:08:41;;;;;;;5.57;3.00;;;;;;;;;;5052190;28;20449;-75
2022/12/24 10:11:13;;;;;;;9.90;3.70;;;;;;;;;;5055380;28;20438;-74
2022/12/24 10:13:45;;;;;;;7.00;3.30;;;;;;;;;;5051515;28;20452;-76
2022/12/24 10:16:15;;;;;;;8.83;3.50;;;;;;;;;;5051798;28;20433;-76
2022/12/24 10:18:46;;;;;;;10.83;3.30;;;;;;;;;;5063850;28;20992;-75
2022/12/24 10:21:14;;;;;;;8.03;3.80;;;;;;;;;;5050595;28;20433;-76
2022/12/24 10:23:48;;;;;;;12.23;3.77;;;;;;;;;;5050003;28;20442;-75
2022/12/24 10:26:16;;;;;;;7.83;3.40;;;;;;;;;;5050264;28;20465;-75
2022/12/24 10:28:46;;;;;;;11.63;3.50;;;;;;;;;;5050200;28;20534;-75
2022/12/24 10:31:14;;;;;;;6.00;3.33;;;;;;;;;;5051458;28;20552;-75
2022/12/24 10:33:42;;;;;;;9.17;3.67;;;;;;;;;;5054421;28;20433;-75
2022/12/24 10:36:11;;;;;;;11.40;3.83;;;;;;;;;;5054894;28;20468;-74
2022/12/24 10:38:38;;;;;;;6.40;3.20;;;;;;;;;;5056046;28;20531;-75
2022/12/24 10:41:08;;;;;;;9.27;3.07;;;;;;;;;;5052075;28;20549;-76
2022/12/24 10:43:36;;;;;;;10.60;3.20;;;;;;;;;;5051865;28;20490;-74
2022/12/24 10:46:05;;;;;;;9.00;3.40;;;;;;;;;;5052349;28;20460;-75
2022/12/24 10:48:34;;;;;;;6.43;2.67;;;;;;;;;;5052292;28;20457;-77
2022/12/24 10:51:03;;;;;;;11.43;2.80;;;;;;;;;;5053010;28;20488;-76
2022/12/24 10:53:34;;;;;;;7.37;3.03;;;;;;;;;;5052027;28;20442;-76
2022/12/24 10:56:02;;;;;;;6.00;3.63;;;;;;;;;;5053173;28;20441;-75
2022/12/24 10:58:31;;;;;;;9.50;3.33;;;;;;;;;;5052577;28;20858;-75
2022/12/24 11:00:58;;;;;;;8.30;3.53;;;;;;;;;;5055932;28;20442;-76
2022/12/24 11:03:29;;;;;;;8.10;3.60;;;;;;;;;;5051841;28;20448;-75
2022/12/24 11:06:00;;;;;;;8.10;2.80;;;;;;;;;;5052633;28;20488;-75
2022/12/24 11:08:27;;;;;;;7.90;3.50;;;;;;;;;;5052170;28;20461;-76
2022/12/24 11:10:56;;;;;;;7.40;3.83;;;;;;;;;;5052430;28;20449;-76
2022/12/24 11:13:25;;;;;;;8.57;3.67;;;;;;;;;;5052301;28;20446;-76
2022/12/24 11:15:59;;;;;;;7.43;3.53;;;;;;;;;;5052150;28;20460;-77
2022/12/24 11:18:26;;;;;;;11.10;4.30;;;;;;;;;;5051807;28;20542;-75
2022/12/24 11:20:54;;;;;;;7.70;2.90;;;;;;;;;;5053227;28;20450;-75
2022/12/24 11:23:22;;;;;;;10.40;3.40;;;;;;;;;;5053320;28;20441;-77
2022/12/24 11:25:51;;;;;;;9.47;3.47;;;;;;;;;;5053782;28;20469;-76
2022/12/24 11:28:21;;;;;;;10.83;3.50;;;;;;;;;;5054017;28;20461;-76
2022/12/24 11:30:58;;;;;;;8.40;4.40;;;;;;;;;;5052327;28;20438;-76
2022/12/24 11:33:25;;;;;;;7.07;3.90;;;;;;;;;;5050947;28;20448;-76
2022/12/24 11:35:54;;;;;;;8.20;3.43;;;;;;;;;;5051932;28;20438;-76
2022/12/24 11:38:22;;;;;;;14.17;3.80;;;;;;;;;;5051499;28;20477;-75
2022/12/24 11:40:50;;;;;;;14.00;3.90;;;;;;;;;;5069223;28;20952;-74
2022/12/24 11:43:19;;;;;;;6.20;3.40;;;;;;;;;;5068928;28;20450;-76
2022/12/24 11:45:50;;;;;;;8.00;3.57;;;;;;;;;;5070514;28;20839;-75
2022/12/24 11:48:30;;;;;;;7.50;3.00;;;;;;;;;;5070568;28;20964;-74
2022/12/24 11:50:57;;;;;;;5.73;2.83;;;;;;;;;;5069666;28;20448;-74
2022/12/24 11:53:26;;;;;;;3.57;2.37;;;;;;;;;;5070223;28;20440;-75
2022/12/24 11:55:54;;;;;;;10.17;2.87;;;;;;;;;;5070913;28;20437;-76
2022/12/24 11:58:25;;;;;;;6.30;3.03;;;;;;;;;;5070647;28;20559;-75
2022/12/24 12:00:57;;;;;;;5.67;2.43;;;;;;;;;;5071161;28;20444;-75
2022/12/24 12:03:29;;;;;;;9.20;3.20;;;;;;;;;;5070180;28;20443;-74
2022/12/24 12:05:59;;;;;;;6.87;2.90;;;;;;;;;;5070733;28;20440;-75
2022/12/24 12:08:27;;;;;;;7.87;3.30;;;;;;;;;;5070606;28;20457;-76
2022/12/24 12:10:55;;;;;;;7.80;2.80;;;;;;;;;;5070521;28;20448;-75
2022/12/24 12:13:24;;;;;;;6.77;3.63;;;;;;;;;;5071031;28;20856;-76
2022/12/24 12:15:52;;;;;;;7.40;3.33;;;;;;;;;;5051766;28;20554;-76
2022/12/24 12:18:22;;;;;;;11.17;4.30;;;;;;;;;;5050997;28;20493;-74
2022/12/24 12:20:51;;;;;;;6.37;2.83;;;;;;;;;;5051257;28;20437;-75
2022/12/24 12:23:22;;;;;;;9.70;2.90;;;;;;;;;;5050368;28;20445;-76
2022/12/24 12:25:52;;;;;;;8.63;3.33;;;;;;;;;;5050409;28;20441;-76
2022/12/24 12:28:21;;;;;;;6.10;2.63;;;;;;;;;;5050465;28;20461;-76
2022/12/24 12:30:54;;;;;;;8.03;3.30;;;;;;;;;;5050508;28;20449;-76
2022/12/24 12:33:26;;;;;;;6.37;2.80;;;;;;;;;;5050038;28;20546;-76
2022/12/24 12:35:55;;;;;;;5.63;2.50;;;;;;;;;;5050686;28;20876;-74
2022/12/24 12:38:24;;;;;;;11.30;3.03;;;;;;;;;;5050336;28;20481;-76
2022/12/24 12:40:58;;;;;;;4.53;2.53;;;;;;;;;;5050467;28;20446;-76
2022/12/24 12:43:31;;;;;;;7.50;3.17;;;;;;;;;;5050189;28;20433;-76
2022/12/24 12:46:00;;;;;;;6.27;3.30;;;;;;;;;;5050814;28;20471;-74
2022/12/24 12:48:37;;;;;;;8.03;3.27;;;;;;;;;;5052234;28;20458;-76
2022/12/24 12:51:06;;;;;;;9.30;3.30;;;;;;;;;;5052426;28;20434;-75
2022/12/24 12:53:45;;;;;;;6.13;2.90;;;;;;;;;;5055775;28;20487;-77
2022/12/24 12:56:19;;;;;;;6.87;3.17;;;;;;;;;;5050130;28;20510;-76
2022/12/24 12:58:50;;;;;;;12.13;3.17;;;;;;;;;;5050333;28;20523;-76
2022/12/24 13:01:19;;;;;;;8.17;3.93;;;;;;;;;;5050381;28;20933;-74
2022/12/24 13:04:01;;;;;;;10.97;3.60;;;;;;;;;;5049842;28;20441;-74
2022/12/24 13:06:40;;;;;;;8.20;3.33;;;;;;;;;;5053758;28;20554;-74
2022/12/24 13:09:22;;;;;;;6.77;3.10;;;;;;;;;;5052212;28;20437;-75
2022/12/24 13:12:04;;;;;;;7.40;3.03;;;;;;;;;;5049722;28;20454;-74
2022/12/24 13:14:40;;;;;;;6.03;2.70;;;;;;;;;;5054926;28;20429;-74
2022/12/24 13:17:22;;;;;;;12.23;3.43;;;;;;;;;;5050052;28;20465;-75
2022/12/24 13:20:00;;;;;;;10.30;3.10;;;;;;;;;;5049874;28;20418;-75
2022/12/24 13:22:27;;;;;;;8.50;3.40;;;;;;;;;;5049498;28;20446;-76
2022/12/24 13:24:55;;;;;;;7.67;3.73;;;;;;;;;;5049985;28;20825;-76
2022/12/24 13:27:26;;;;;;;9.43;3.63;;;;;;;;;;5052201;28;20477;-76
2022/12/24 13:29:55;;;;;;;14.93;3.20;;;;;;;;;;5053914;28;20418;-76
2022/12/24 13:32:37;;;;;;;31.53;19.90;;;;;;;;;;5053622;28;20453;-75
2022/12/24 13:35:25;;;;;;;42.43;30.37;;;;;;;;;;5054019;28;20440;-76
2022/12/24 13:37:52;;;;;;;11.43;5.27;;;;;;;;;;5053458;28;20492;-77
2022/12/24 13:40:23;;;;;;;10.43;3.77;;;;;;;;;;5053426;28;20508;-76
2022/12/24 13:42:53;;;;;;;7.00;3.60;;;;;;;;;;5053315;28;20457;-76
2022/12/24 13:45:42;;;;;;;8.33;3.20;;;;;;;;;;5053390;28;20441;-76
2022/12/24 13:48:15;;;;;;;9.23;2.83;;;;;;;;;;5053839;28;20492;-76
2022/12/24 13:50:44;;;;;;;17.40;3.40;;;;;;;;;;5053339;28;20461;-74
2022/12/24 13:53:21;;;;;;;11.17;3.17;;;;;;;;;;5053489;28;20438;-75
2022/12/24 13:55:51;;;;;;;5.63;2.20;;;;;;;;;;5052725;28;20460;-77
2022/12/24 13:58:20;;;;;;;8.20;3.13;;;;;;;;;;5053105;28;20473;-75
2022/12/24 14:00:54;;;;;;;8.17;2.60;;;;;;;;;;5052990;28;20541;-76
2022/12/24 14:03:24;;;;;;;8.67;2.87;;;;;;;;;;5052414;28;20476;-76
2022/12/24 14:05:52;;;;;;;8.73;3.03;;;;;;;;;;5052846;28;20450;-77
2022/12/24 14:08:27;;;;;;;7.57;2.63;;;;;;;;;;5052378;28;20465;-77
2022/12/24 14:10:58;;;;;;;13.40;3.67;;;;;;;;;;5052548;28;20900;-75
2022/12/24 14:13:44;;;;;;;5.43;2.43;;;;;;;;;;5052235;28;20445;-75
2022/12/24 14:16:15;;;;;;;7.43;2.90;;;;;;;;;;5032306;28;20446;-76
2022/12/24 14:18:43;;;;;;;9.17;3.77;;;;;;;;;;5032304;28;20482;-75
2022/12/24 14:21:16;;;;;;;7.40;3.20;;;;;;;;;;5033135;28;20450;-75
2022/12/24 14:23:47;;;;;;;5.97;3.03;;;;;;;;;;5032125;28;20982;-76
2022/12/24 14:26:16;;;;;;;12.23;4.10;;;;;;;;;;5032463;28;20474;-76
2022/12/24 14:28:45;;;;;;;9.83;3.97;;;;;;;;;;5032922;28;20496;-76
2022/12/24 14:31:16;;;;;;;8.70;5.13;;;;;;;;;;5032263;28;20508;-76
2022/12/24 14:33:43;;;;;;;8.90;4.57;;;;;;;;;;5032420;28;20569;-76
2022/12/24 14:36:12;;;;;;;11.73;5.53;;;;;;;;;;5032621;28;20486;-75
2022/12/24 14:38:40;;;;;;;12.67;5.30;;;;;;;;;;5032327;28;21020;-75
2022/12/24 14:41:09;;;;;;;11.57;5.73;;;;;;;;;;5032612;28;20450;-76
2022/12/24 14:43:45;;;;;;;9.60;4.70;;;;;;;;;;5032649;28;20447;-75
2022/12/24 14:46:16;;;;;;;13.73;5.60;;;;;;;;;;5032723;28;20453;-75
2022/12/24 14:48:48;;;;;;;10.00;5.30;;;;;;;;;;5032331;28;20508;-75
2022/12/24 14:51:19;;;;;;;9.63;6.00;;;;;;;;;;5032516;28;20438;-75
2022/12/24 14:53:55;;;;;;;11.30;5.70;;;;;;;;;;5031975;28;20458;-75
2022/12/24 14:56:22;;;;;;;12.77;4.77;;;;;;;;;;5032078;28;20442;-76
2022/12/24 14:58:50;;;;;;;13.40;5.77;;;;;;;;;;5032152;28;20481;-75
2022/12/24 15:01:22;;;;;;;13.83;5.93;;;;;;;;;;5032160;28;20585;-75